createdAt,value
2022-07-26T00:02:53.487Z,100509.53
2022-07-26T00:05:21.437Z,100512.50
2022-07-26T00:07:49.312Z,100513.84
2022-07-26T00:10:18.842Z,100518.72
2022-07-26T00:12:46.603Z,100519.22
2022-07-26T00:15:14.697Z,100516.81
2022-07-26T00:17:42.473Z,100510.63
2022-07-26T00:20:12.270Z,100519.00
2022-07-26T00:22:41.745Z,100514.16
2022-07-26T00:25:10.688Z,100522.50
2022-07-26T00:27:38.804Z,100522.50
2022-07-26T00:30:08.532Z,100516.28
2022-07-26T00:32:36.522Z,100519.25
2022-07-26T00:35:04.900Z,100520.38
2022-07-26T00:37:34.301Z,100523.59
2022-07-26T00:40:02.592Z,100520.09
2022-07-26T00:42:30.432Z,100518.19
2022-07-26T00:44:58.289Z,100519.84
2022-07-26T00:47:26.336Z,100519.84
2022-07-26T00:49:54.115Z,100522.78
2022-07-26T00:52:21.954Z,100523.59
2022-07-26T00:54:52.014Z,100523.59
2022-07-26T00:57:19.769Z,100515.00
2022-07-26T00:59:47.520Z,100511.78
2022-07-26T01:02:16.053Z,100515.53
2022-07-26T01:04:45.254Z,100509.66
2022-07-26T01:07:14.983Z,100510.44
2022-07-26T01:09:44.058Z,100517.72
2022-07-26T01:12:13.260Z,100515.03
2022-07-26T01:14:43.426Z,100516.91
2022-07-26T01:17:11.459Z,100504.00
2022-07-26T01:19:39.367Z,100505.38
2022-07-26T01:22:14.182Z,100506.16
2022-07-26T01:24:42.463Z,100498.38
2022-07-26T01:27:10.317Z,100500.53
2022-07-26T01:29:38.071Z,100499.72
2022-07-26T01:32:06.733Z,100500.00
2022-07-26T01:34:34.520Z,100504.56
2022-07-26T01:37:03.165Z,100502.44
2022-07-26T01:39:32.554Z,100501.34
2022-07-26T01:42:00.287Z,100510.22
2022-07-26T01:44:28.130Z,100500.00
2022-07-26T01:46:56.445Z,100505.13
2022-07-26T01:49:24.254Z,100508.91
2022-07-26T01:51:51.991Z,100519.91
2022-07-26T01:54:22.345Z,100515.63
2022-07-26T01:56:53.691Z,100520.22
2022-07-26T01:59:21.655Z,100516.19
2022-07-26T02:01:49.508Z,100518.88
2022-07-26T02:04:31.518Z,100512.94
2022-07-26T02:06:59.580Z,100515.38
2022-07-26T02:09:27.366Z,100514.56
2022-07-26T02:12:00.904Z,100510.00
2022-07-26T02:14:28.649Z,100518.34
2022-07-26T02:17:00.093Z,100515.38
2022-07-26T02:19:28.986Z,100517.25
2022-07-26T02:21:57.646Z,100514.56
2022-07-26T02:24:27.225Z,100523.72
2022-07-26T02:26:54.996Z,100526.94
2022-07-26T02:29:24.560Z,100521.56
2022-07-26T02:31:52.937Z,100529.66
2022-07-26T02:34:21.039Z,100526.41
2022-07-26T02:36:48.802Z,100531.78
2022-07-26T02:39:18.027Z,100531.25
2022-07-26T02:41:45.823Z,100523.19
2022-07-26T02:44:13.901Z,100529.66
2022-07-26T02:46:43.168Z,100523.47
2022-07-26T02:49:10.988Z,100536.66
2022-07-26T02:51:38.990Z,100531.00
2022-07-26T02:54:07.096Z,100536.66
2022-07-26T02:56:35.376Z,100539.34
2022-07-26T02:59:03.098Z,100530.72
2022-07-26T03:01:30.926Z,100529.38
2022-07-26T03:04:00.299Z,100530.19
2022-07-26T03:06:28.505Z,100541.47
2022-07-26T03:08:56.453Z,100540.69
2022-07-26T03:11:24.192Z,100539.88
2022-07-26T03:13:51.926Z,100539.88
2022-07-26T03:16:22.726Z,100539.06
2022-07-26T03:18:52.614Z,100536.66
2022-07-26T03:21:22.083Z,100545.53
2022-07-26T03:23:49.925Z,100541.25
2022-07-26T03:26:17.913Z,100547.41
2022-07-26T03:28:45.971Z,100537.19
2022-07-26T03:31:14.238Z,100547.94
2022-07-26T03:33:42.179Z,100546.34
2022-07-26T03:36:11.487Z,100543.66
2022-07-26T03:38:44.470Z,100542.03
2022-07-26T03:41:13.616Z,100550.63
2022-07-26T03:43:41.738Z,100554.94
2022-07-26T03:46:09.904Z,100552.25
2022-07-26T03:48:38.154Z,100554.94
2022-07-26T03:51:06.306Z,100557.38
2022-07-26T03:53:34.829Z,100568.94
2022-07-26T03:56:21.682Z,100565.97
2022-07-26T03:58:49.700Z,100574.31
2022-07-26T04:01:17.553Z,100579.69
2022-07-26T04:03:47.706Z,100563.84
2022-07-26T04:06:16.522Z,100567.88
2022-07-26T04:08:45.505Z,100575.41
2022-07-26T04:11:14.973Z,100572.72
2022-07-26T04:13:43.030Z,100580.78
2022-07-26T04:16:11.374Z,100583.47
2022-07-26T04:18:39.358Z,100582.63
2022-07-26T04:21:07.617Z,100577.00
2022-07-26T04:23:35.343Z,100586.16
2022-07-26T04:26:03.156Z,100583.47
2022-07-26T04:28:33.494Z,100594.25
2022-07-26T04:31:02.167Z,100589.38
2022-07-26T04:33:29.983Z,100585.06
2022-07-26T04:35:57.878Z,100590.44
2022-07-26T04:38:25.611Z,100597.69
2022-07-26T04:40:53.523Z,100596.91
2022-07-26T04:43:21.477Z,100596.34
2022-07-26T04:45:50.681Z,100597.94
2022-07-26T04:48:19.223Z,100597.16
2022-07-26T04:50:47.114Z,100593.66
2022-07-26T04:53:14.873Z,100588.00
2022-07-26T04:55:43.160Z,100592.03
2022-07-26T04:58:11.602Z,100598.22
2022-07-26T05:01:08.858Z,100602.81
2022-07-26T05:03:29.260Z,100595.81
2022-07-26T05:05:57.062Z,100598.53
2022-07-26T05:08:24.828Z,100602.81
2022-07-26T05:10:55.568Z,100611.69
2022-07-26T05:13:29.871Z,100608.72
2022-07-26T05:15:59.260Z,100610.34
2022-07-26T05:18:29.314Z,100606.00
2022-07-26T05:21:01.735Z,100600.38
2022-07-26T05:23:29.850Z,100606.56
2022-07-26T05:25:57.620Z,100608.16
2022-07-26T05:28:25.532Z,100612.47
2022-07-26T05:30:53.379Z,100617.31
2022-07-26T05:33:21.249Z,100622.69
2022-07-26T05:35:49.072Z,100617.56
2022-07-26T05:38:18.348Z,100624.53
2022-07-26T05:40:50.530Z,100626.41
2022-07-26T05:43:19.071Z,100631.53
2022-07-26T05:45:47.811Z,100640.97
2022-07-26T05:48:15.554Z,100631.25
2022-07-26T05:50:43.567Z,100629.38
2022-07-26T05:53:11.326Z,100633.38
2022-07-26T05:55:40.420Z,100637.13
2022-07-26T05:58:08.527Z,100629.56
2022-07-26T06:00:36.695Z,100631.72
2022-07-26T06:03:22.201Z,100627.66
2022-07-26T06:05:51.150Z,100629.31
2022-07-26T06:08:20.064Z,100641.94
2022-07-26T06:10:50.140Z,100642.75
2022-07-26T06:13:18.172Z,100648.16
2022-07-26T06:15:46.111Z,100645.69
2022-07-26T06:18:15.488Z,100648.69
2022-07-26T06:20:44.098Z,100661.66
2022-07-26T06:23:12.362Z,100662.72
2022-07-26T06:25:41.153Z,100661.94
2022-07-26T06:28:11.892Z,100669.50
2022-07-26T06:30:40.641Z,100664.66
2022-07-26T06:33:09.563Z,100664.94
2022-07-26T06:35:39.128Z,100666.28
2022-07-26T06:38:07.837Z,100670.03
2022-07-26T06:40:36.340Z,100676.50
2022-07-26T06:43:05.208Z,100678.38
2022-07-26T06:45:34.742Z,100689.16
2022-07-26T06:48:03.034Z,100688.38
2022-07-26T06:50:30.975Z,100686.75
2022-07-26T06:52:58.939Z,100692.16
2022-07-26T06:55:26.715Z,100694.84
2022-07-26T06:57:54.450Z,100695.34
2022-07-26T07:00:22.672Z,100690.50
2022-07-26T07:02:51.788Z,100685.94
2022-07-26T07:05:19.697Z,100688.91
2022-07-26T07:07:47.770Z,100693.75
2022-07-26T07:10:15.927Z,100695.38
2022-07-26T07:12:44.883Z,100701.28
2022-07-26T07:15:13.128Z,100702.91
2022-07-26T07:17:40.923Z,100696.69
2022-07-26T07:20:11.205Z,100702.09
2022-07-26T07:22:39.222Z,100711.53
2022-07-26T07:25:07.524Z,100701.84
2022-07-26T07:27:36.507Z,100706.66
2022-07-26T07:30:05.342Z,100708.56
2022-07-26T07:32:33.174Z,100710.44
2022-07-26T07:35:03.251Z,100709.91
2022-07-26T07:37:52.260Z,100707.22
2022-07-26T07:40:22.469Z,100708.56
2022-07-26T07:42:50.481Z,100711.53
2022-07-26T07:45:18.315Z,100722.59
2022-07-26T07:47:46.367Z,100716.91
2022-07-26T07:50:14.127Z,100722.31
2022-07-26T07:52:43.279Z,100721.22
2022-07-26T07:55:37.795Z,100725.78
2022-07-26T07:58:00.549Z,100726.59
2022-07-26T08:00:28.438Z,100730.66
2022-07-26T08:02:56.186Z,100723.38
2022-07-26T08:05:23.913Z,100730.09
2022-07-26T08:07:53.990Z,100734.16
2022-07-26T08:10:22.352Z,100731.97
2022-07-26T08:12:51.210Z,100731.97
2022-07-26T08:15:21.273Z,100735.22
2022-07-26T08:17:54.063Z,100729.03
2022-07-26T08:20:23.644Z,100728.75
2022-07-26T08:22:54.442Z,100733.59
2022-07-26T08:25:23.485Z,100740.63
2022-07-26T08:28:09.221Z,100750.31
2022-07-26T08:30:39.786Z,100738.47
2022-07-26T08:33:07.711Z,100747.34
2022-07-26T08:35:35.765Z,100742.75
2022-07-26T08:38:05.184Z,100747.91
2022-07-26T08:40:34.747Z,100747.91
2022-07-26T08:43:03.155Z,100748.16
2022-07-26T08:45:32.810Z,100760.00
2022-07-26T08:48:18.361Z,100755.16
2022-07-26T08:50:47.129Z,100760.53
2022-07-26T08:53:17.667Z,100763.78
2022-07-26T08:56:06.075Z,100760.00
2022-07-26T08:58:36.317Z,100763.78
2022-07-26T09:01:07.452Z,100761.59
2022-07-26T09:03:38.076Z,100767.53
2022-07-26T09:06:14.476Z,100770.75
2022-07-26T09:08:44.709Z,100771.56
2022-07-26T09:11:34.754Z,100771.28
2022-07-26T09:14:05.201Z,100774.81
2022-07-26T09:16:39.055Z,100772.91
2022-07-26T09:19:17.916Z,100781.78
2022-07-26T09:21:47.301Z,100783.66
2022-07-26T09:24:34.802Z,100779.84
2022-07-26T09:27:05.025Z,100780.38
2022-07-26T09:29:44.273Z,100776.84
2022-07-26T09:32:17.004Z,100780.34
2022-07-26T09:34:52.653Z,100779.00
2022-07-26T09:37:34.286Z,100782.44
2022-07-26T09:40:06.827Z,100777.81
2022-07-26T09:42:35.798Z,100785.59
2022-07-26T09:45:15.782Z,100779.56
2022-07-26T09:47:43.570Z,100782.19
2022-07-26T09:50:14.085Z,100776.25
2022-07-26T09:52:58.186Z,100785.13
2022-07-26T09:55:36.390Z,100790.44
2022-07-26T09:58:11.749Z,100784.72
2022-07-26T10:00:39.882Z,100785.75
2022-07-26T10:03:08.283Z,100786.75
2022-07-26T10:05:37.694Z,100788.84
2022-07-26T10:08:08.150Z,100783.34
2022-07-26T10:10:45.078Z,100784.91
2022-07-26T10:13:13.554Z,100781.84
2022-07-26T10:15:43.641Z,100786.13
2022-07-26T10:18:16.796Z,100777.41
2022-07-26T10:20:52.057Z,100781.59
2022-07-26T10:23:41.146Z,100785.28
2022-07-26T10:26:12.862Z,100785.16
2022-07-26T10:28:42.145Z,100786.44
2022-07-26T10:31:33.088Z,100790.69
2022-07-26T10:34:04.247Z,100776.56
2022-07-26T10:36:37.407Z,100780.22
2022-07-26T10:39:09.892Z,100781.25
2022-07-26T10:41:45.283Z,100783.88
2022-07-26T10:44:15.831Z,100779.13
2022-07-26T10:47:03.223Z,100777.38
2022-07-26T10:49:34.035Z,100777.00
2022-07-26T10:52:16.460Z,100775.25
2022-07-26T10:55:21.064Z,100779.47
2022-07-26T10:57:50.553Z,100775.13
2022-07-26T11:00:22.901Z,100777.56
2022-07-26T11:03:01.211Z,100780.53
2022-07-26T11:05:32.546Z,100785.50
2022-07-26T11:08:08.220Z,100785.06
2022-07-26T11:10:39.333Z,100787.03
2022-07-26T11:13:15.244Z,100787.19
2022-07-26T11:15:45.809Z,100785.47
2022-07-26T11:18:20.083Z,100789.06
2022-07-26T11:20:53.148Z,100795.94
2022-07-26T11:23:36.507Z,100796.31
2022-07-26T11:26:10.906Z,100797.16
2022-07-26T11:28:55.235Z,100799.38
2022-07-26T11:31:48.176Z,100794.06
2022-07-26T11:34:19.057Z,100799.78
2022-07-26T11:36:48.018Z,100797.94
2022-07-26T11:39:17.091Z,100792.28
2022-07-26T11:41:44.914Z,100797.69
2022-07-26T11:44:22.371Z,100797.44
2022-07-26T11:46:51.899Z,100789.03
2022-07-26T11:49:22.901Z,100790.34
2022-07-26T11:51:55.318Z,100797.09
2022-07-26T11:54:24.003Z,100797.59
2022-07-26T11:56:54.061Z,100804.84
2022-07-26T11:59:24.697Z,100800.22
2022-07-26T12:01:53.218Z,100793.22
2022-07-26T12:04:24.419Z,100803.22
2022-07-26T12:06:53.745Z,100807.03
2022-07-26T12:09:32.624Z,100797.53
2022-07-26T12:12:02.211Z,100797.59
2022-07-26T12:14:35.043Z,100797.53
2022-07-26T12:17:12.523Z,100799.44
2022-07-26T12:19:41.750Z,100805.44
2022-07-26T12:22:12.645Z,100799.66
2022-07-26T12:24:44.493Z,100801.25
2022-07-26T12:27:15.826Z,100799.41
2022-07-26T12:29:48.231Z,100801.09
2022-07-26T12:32:19.913Z,100801.78
2022-07-26T12:34:59.896Z,100807.75
2022-07-26T12:37:39.732Z,100812.72
2022-07-26T12:40:12.070Z,100820.53
2022-07-26T12:42:41.329Z,100818.44
2022-07-26T12:45:12.502Z,100821.66
2022-07-26T12:47:42.321Z,100829.25
2022-07-26T12:50:12.486Z,100820.66
2022-07-26T12:52:40.740Z,100830.22
2022-07-26T12:55:11.527Z,100818.66
2022-07-26T12:57:45.975Z,100810.28
2022-07-26T13:00:18.596Z,100814.06
2022-07-26T13:02:47.192Z,100822.16
2022-07-26T13:05:16.132Z,100818.63
2022-07-26T13:07:44.431Z,100823.59
2022-07-26T13:13:00.720Z,100816.50
2022-07-26T13:15:36.174Z,100820.53
2022-07-26T13:18:07.314Z,100817.81
2022-07-26T13:20:36.194Z,100809.97
2022-07-26T13:23:04.265Z,100810.00
2022-07-26T13:25:40.018Z,100823.56
2022-07-26T13:28:09.461Z,100811.66
2022-07-26T13:30:43.017Z,100820.84
2022-07-26T13:33:11.700Z,100824.19
2022-07-26T13:35:41.362Z,100821.03
2022-07-26T13:38:10.189Z,100831.81
2022-07-26T13:40:38.229Z,100835.06
2022-07-26T13:43:06.267Z,100830.72
2022-07-26T13:45:34.578Z,100838.34
2022-07-26T13:48:04.378Z,100837.25
2022-07-26T13:50:32.450Z,100835.38
2022-07-26T13:53:00.669Z,100830.28
2022-07-26T13:55:28.708Z,100842.66
2022-07-26T13:57:58.149Z,100837.78
2022-07-26T14:00:28.720Z,100845.06
2022-07-26T14:02:59.717Z,100847.50
2022-07-26T14:05:29.479Z,100840.81
2022-07-26T14:07:57.479Z,100843.28
2022-07-26T14:10:26.284Z,100847.06
2022-07-26T14:12:54.546Z,100848.97
2022-07-26T14:15:23.701Z,100852.00
2022-07-26T14:17:52.644Z,100856.91
2022-07-26T14:20:21.276Z,100863.41
2022-07-26T14:22:53.659Z,100869.84
2022-07-26T14:25:22.231Z,100866.06
2022-07-26T14:27:51.021Z,100862.28
2022-07-26T14:30:19.816Z,100863.91
2022-07-26T14:32:48.271Z,100866.59
2022-07-26T14:35:17.710Z,100870.66
2022-07-26T14:37:46.383Z,100864.47
2022-07-26T14:40:17.532Z,100868.78
2022-07-26T14:42:46.807Z,100865.28
2022-07-26T14:45:15.858Z,100871.16
2022-07-26T14:47:44.050Z,100871.47
2022-07-26T14:50:13.999Z,100863.94
2022-07-26T14:52:43.933Z,100865.56
2022-07-26T14:55:12.391Z,100872.28
2022-07-26T14:57:42.547Z,100872.56
2022-07-26T15:00:13.058Z,100867.97
2022-07-26T15:02:41.626Z,100867.94
2022-07-26T15:05:10.865Z,100874.13
2022-07-26T15:07:39.415Z,100868.19
2022-07-26T15:10:09.365Z,100866.06
2022-07-26T15:12:37.645Z,100865.28
2022-07-26T15:15:08.636Z,100858.00
2022-07-26T15:17:37.531Z,100858.28
2022-07-26T15:20:07.286Z,100856.38
2022-07-26T15:22:35.944Z,100854.25
2022-07-26T15:25:04.404Z,100854.25
2022-07-26T15:27:32.499Z,100848.31
2022-07-26T15:30:05.835Z,100856.41
2022-07-26T15:32:37.934Z,100853.69
2022-07-26T15:35:07.421Z,100852.34
2022-07-26T15:37:43.901Z,100858.28
2022-07-26T15:40:13.448Z,100860.97
2022-07-26T15:42:44.295Z,100860.69
2022-07-26T15:45:14.153Z,100860.69
2022-07-26T15:47:54.787Z,100859.38
2022-07-26T15:50:24.367Z,100856.38
2022-07-26T15:52:52.680Z,100847.72
2022-07-26T15:55:22.211Z,100859.38
2022-07-26T15:57:50.261Z,100857.50
2022-07-26T16:00:18.967Z,100856.38
2022-07-26T16:02:48.779Z,100855.28
2022-07-26T16:05:17.255Z,100848.78
2022-07-26T16:07:46.442Z,100850.44
2022-07-26T16:10:16.405Z,100853.94
2022-07-26T16:12:44.338Z,100850.97
2022-07-26T16:15:12.825Z,100862.56
2022-07-26T16:17:41.343Z,100854.78
2022-07-26T16:20:11.331Z,100869.06
2022-07-26T16:22:41.225Z,100865.00
2022-07-26T16:25:13.221Z,100867.69
2022-07-26T16:27:42.261Z,100868.53
2022-07-26T16:30:11.631Z,100871.47
2022-07-26T16:32:39.409Z,100872.00
2022-07-26T16:35:08.319Z,100885.25
2022-07-26T16:37:37.749Z,100885.25
2022-07-26T16:40:06.898Z,100882.56
2022-07-26T16:42:42.399Z,100888.19
2022-07-26T16:45:10.850Z,100879.56
2022-07-26T16:47:38.565Z,100879.56
2022-07-26T16:50:07.682Z,100886.56
2022-07-26T16:52:37.223Z,100887.13
2022-07-26T16:55:10.627Z,100878.50
2022-07-26T16:57:39.418Z,100880.38
2022-07-26T17:00:10.428Z,100873.69
2022-07-26T17:02:39.570Z,100870.69
2022-07-26T17:05:08.710Z,100873.13
2022-07-26T17:07:38.183Z,100868.81
2022-07-26T17:10:07.678Z,100872.03
2022-07-26T17:12:35.838Z,100880.94
2022-07-26T17:15:04.066Z,100886.06
2022-07-26T17:17:32.023Z,100879.31
2022-07-26T17:20:00.088Z,100875.28
2022-07-26T17:22:28.124Z,100876.63
2022-07-26T17:24:57.398Z,100877.19
2022-07-26T17:27:25.326Z,100874.75
2022-07-26T17:29:53.308Z,100878.00
2022-07-26T17:32:21.491Z,100879.34
2022-07-26T17:34:49.561Z,100876.38
2022-07-26T17:37:17.442Z,100875.03
2022-07-26T17:39:53.158Z,100877.44
2022-07-26T17:42:23.754Z,100884.47
2022-07-26T17:44:52.286Z,100886.34
2022-07-26T17:47:29.520Z,100886.34
2022-07-26T17:52:48.362Z,100882.81
2022-07-26T17:55:16.398Z,100879.88
2022-07-26T17:57:45.968Z,100887.69
2022-07-26T18:00:15.227Z,100882.84
2022-07-26T18:02:43.592Z,100888.78
2022-07-26T18:05:12.153Z,100880.41
2022-07-26T18:07:40.592Z,100890.09
2022-07-26T18:10:10.342Z,100891.19
2022-07-26T18:12:38.213Z,100903.06
2022-07-26T18:15:09.014Z,100894.97
2022-07-26T18:17:37.533Z,100885.75
2022-07-26T18:20:07.647Z,100887.13
2022-07-26T18:22:35.613Z,100880.09
2022-07-26T18:25:04.012Z,100895.44
2022-07-26T18:27:31.923Z,100887.63
2022-07-26T18:30:00.667Z,100884.94
2022-07-26T18:32:29.981Z,100887.84
2022-07-26T18:34:57.919Z,100882.22
2022-07-26T18:37:25.949Z,100881.41
2022-07-26T18:39:57.621Z,100876.84
2022-07-26T18:42:26.325Z,100885.44
2022-07-26T18:44:54.303Z,100880.88
2022-07-26T18:47:22.643Z,100888.94
2022-07-26T18:49:52.119Z,100889.75
2022-07-26T18:52:32.167Z,100881.13
2022-07-26T18:55:06.899Z,100885.72
2022-07-26T18:57:35.178Z,100893.22
2022-07-26T19:00:03.448Z,100886.78
2022-07-26T19:02:32.183Z,100889.19
2022-07-26T19:05:01.519Z,100891.88
2022-07-26T19:07:30.120Z,100895.63
2022-07-26T19:09:58.875Z,100890.75
2022-07-26T19:12:27.943Z,100902.59
2022-07-26T19:14:56.054Z,100904.22
2022-07-26T19:17:24.114Z,100902.31
2022-07-26T19:19:52.090Z,100904.22
2022-07-26T19:22:21.760Z,100906.63
2022-07-26T19:24:49.895Z,100913.91
2022-07-26T19:27:18.159Z,100917.94
2022-07-26T19:29:48.659Z,100923.59
2022-07-26T19:32:16.581Z,100924.63
2022-07-26T19:34:44.769Z,100925.41
2022-07-26T19:37:13.006Z,100933.16
2022-07-26T19:39:42.344Z,100932.03
2022-07-26T19:42:10.406Z,100936.31
2022-07-26T19:44:38.297Z,100940.16
2022-07-26T19:47:06.476Z,100950.34
2022-07-26T19:49:34.436Z,100946.53
2022-07-26T19:52:02.415Z,100950.75
2022-07-26T19:54:30.485Z,100952.88
2022-07-26T19:57:00.135Z,100945.38
2022-07-26T19:59:27.969Z,100948.56
2022-07-26T20:01:58.456Z,100946.97
2022-07-26T20:04:27.027Z,100948.31
2022-07-26T20:06:55.834Z,100951.81
2022-07-26T20:09:23.796Z,100958.84
2022-07-26T20:11:52.164Z,100956.63
2022-07-26T20:14:21.802Z,100958.84
2022-07-26T20:16:54.317Z,100971.72
2022-07-26T20:19:26.784Z,100970.91
2022-07-26T20:21:55.423Z,100973.38
2022-07-26T20:24:23.406Z,100981.94
2022-07-26T20:26:51.434Z,100972.84
2022-07-26T20:29:19.619Z,100981.69
2022-07-26T20:31:49.113Z,100988.41
2022-07-26T20:34:17.081Z,100989.25
2022-07-26T20:36:45.044Z,100991.88
2022-07-26T20:39:13.312Z,100987.81
2022-07-26T20:41:41.438Z,100992.19
2022-07-26T20:44:09.755Z,100997.00
2022-07-26T20:46:40.232Z,100997.81
2022-07-26T20:49:10.921Z,100999.69
2022-07-26T20:51:39.615Z,101007.25
2022-07-26T20:54:08.616Z,101004.81
2022-07-26T20:56:36.724Z,101001.28
2022-07-26T20:59:05.547Z,100999.88
2022-07-26T21:01:34.785Z,100999.56
2022-07-26T21:04:03.663Z,101004.59
2022-07-26T21:06:34.606Z,101000.94
2022-07-26T21:09:09.750Z,101007.97
2022-07-26T21:11:39.310Z,101012.25
2022-07-26T21:14:07.929Z,101013.16
2022-07-26T21:16:36.275Z,101015.44
2022-07-26T21:19:05.748Z,101014.09
2022-07-26T21:21:37.061Z,101018.72
2022-07-26T21:24:06.564Z,101019.41
2022-07-26T21:26:34.710Z,101023.72
2022-07-26T21:29:02.785Z,101023.19
2022-07-26T21:31:31.039Z,101029.91
2022-07-26T21:33:58.998Z,101021.69
2022-07-26T21:36:27.377Z,101023.97
2022-07-26T21:38:57.135Z,101023.03
2022-07-26T21:41:25.046Z,101021.59
2022-07-26T21:43:53.120Z,101023.22
2022-07-26T21:46:21.577Z,101031.03
2022-07-26T21:48:49.777Z,101030.72
2022-07-26T21:51:18.041Z,101028.19
2022-07-26T21:53:46.686Z,101026.88
2022-07-26T21:56:16.206Z,101022.16
2022-07-26T21:58:44.206Z,101016.44
2022-07-26T22:01:15.543Z,101020.47
2022-07-26T22:03:43.712Z,101022.69
2022-07-26T22:06:11.899Z,101023.44
2022-07-26T22:08:41.185Z,101020.16
2022-07-26T22:11:09.194Z,101022.91
2022-07-26T22:13:38.866Z,101018.34
2022-07-26T22:16:08.385Z,101015.97
2022-07-26T22:18:36.298Z,101025.38
2022-07-26T22:21:04.646Z,101026.44
2022-07-26T22:23:32.701Z,101026.13
2022-07-26T22:26:02.162Z,101030.06
2022-07-26T22:28:31.069Z,101037.56
2022-07-26T22:31:00.572Z,101027.63
2022-07-26T22:33:28.884Z,101028.06
2022-07-26T22:35:57.144Z,101035.13
2022-07-26T22:38:25.188Z,101038.28
2022-07-26T22:40:53.468Z,101032.88
2022-07-26T22:43:21.557Z,101040.72
2022-07-26T22:45:49.636Z,101044.47
2022-07-26T22:48:19.100Z,101044.41
2022-07-26T22:50:47.690Z,101040.41
2022-07-26T22:53:16.357Z,101045.47
2022-07-26T22:55:44.456Z,101048.38
2022-07-26T22:58:12.924Z,101041.88
2022-07-26T23:00:40.946Z,101046.78
2022-07-26T23:03:19.347Z,101036.28
2022-07-26T23:05:52.143Z,101046.38
2022-07-26T23:11:08.888Z,101038.81
2022-07-26T23:13:37.470Z,101044.28
2022-07-26T23:16:06.150Z,101049.31
2022-07-26T23:18:35.623Z,101044.50
2022-07-26T23:21:05.885Z,101049.84
2022-07-26T23:23:34.176Z,101049.69
2022-07-26T23:26:02.775Z,101050.75
2022-07-26T23:28:36.612Z,101049.69
2022-07-26T23:31:06.613Z,101051.56
2022-07-26T23:33:52.701Z,101055.50
2022-07-26T23:36:24.966Z,101054.34
2022-07-26T23:38:54.085Z,101057.50
2022-07-26T23:41:22.747Z,101057.50
2022-07-26T23:43:51.192Z,101059.63
2022-07-26T23:46:19.844Z,101063.38
2022-07-26T23:48:48.185Z,101054.91
2022-07-26T23:51:16.805Z,101053.28
2022-07-26T23:53:46.327Z,101057.34
2022-07-26T23:56:14.389Z,101059.47
2022-07-26T23:58:43.115Z,101055.38
